Time;durP1;ratioP1;P1;durP2;ratioP2;P2;SDS_P1;SDS_P2;PMS_P1;PMS_P2;Temp;Humidity;BMP_temperature;BMP_pressure;BME280_temperature;BME280_humidity;BME280_pressure;Samples;Min_cycle;Max_cycle;Signal;HPM_P1;HPM_P2
2021/06/04 00:02:01;;;;;;;0.90;0.80;;;;;;;;;;5055321;28;20446;-75
2021/06/04 00:04:27;;;;;;;1.00;0.90;;;;;;;;;;5055059;28;20444;-75
2021/06/04 00:06:53;;;;;;;1.20;1.10;;;;;;;;;;5054832;28;20841;-75
2021/06/04 00:09:19;;;;;;;0.77;0.77;;;;;;;;;;5055110;28;20551;-75
2021/06/04 00:11:47;;;;;;;1.03;1.00;;;;;;;;;;5053981;28;20555;-76
2021/06/04 00:14:18;;;;;;;1.23;1.13;;;;;;;;;;5055157;28;20882;-75
2021/06/04 00:16:47;;;;;;;1.33;1.23;;;;;;;;;;5054749;28;20451;-75
2021/06/04 00:19:15;;;;;;;1.60;1.50;;;;;;;;;;5053466;28;20466;-75
2021/06/04 00:21:46;;;;;;;1.27;1.27;;;;;;;;;;5053732;28;20412;-75
2021/06/04 00:24:13;;;;;;;1.80;1.70;;;;;;;;;;5054789;28;20883;-75
2021/06/04 00:26:40;;;;;;;1.00;1.00;;;;;;;;;;5060772;28;20544;-75
2021/06/04 00:29:06;;;;;;;0.90;0.90;;;;;;;;;;5054900;28;20467;-75
2021/06/04 00:31:33;;;;;;;1.10;0.70;;;;;;;;;;5055076;28;20562;-75
2021/06/04 00:33:59;;;;;;;1.20;1.20;;;;;;;;;;5055283;28;20491;-75
2021/06/04 00:36:25;;;;;;;1.90;1.80;;;;;;;;;;5053821;28;20409;-75
2021/06/04 00:38:55;;;;;;;1.10;1.10;;;;;;;;;;5037382;28;20782;-75
2021/06/04 00:41:26;;;;;;;1.00;1.00;;;;;;;;;;5036292;28;20781;-75
2021/06/04 00:43:52;;;;;;;1.30;1.20;;;;;;;;;;5055214;28;20423;-75
2021/06/04 00:46:19;;;;;;;1.33;1.23;;;;;;;;;;5054567;28;21281;-76
2021/06/04 00:48:45;;;;;;;0.80;0.70;;;;;;;;;;5036945;28;20503;-76
2021/06/04 00:51:23;;;;;;;1.30;1.10;;;;;;;;;;5069440;28;20418;-75
2021/06/04 00:53:50;;;;;;;1.90;1.80;;;;;;;;;;5074887;28;20794;-75
2021/06/04 00:56:16;;;;;;;0.70;0.70;;;;;;;;;;5074053;28;20750;-76
2021/06/04 00:58:44;;;;;;;1.73;1.63;;;;;;;;;;5074430;28;20451;-75
2021/06/04 01:01:11;;;;;;;1.20;1.10;;;;;;;;;;5074289;28;20407;-75
2021/06/04 01:03:39;;;;;;;1.33;1.23;;;;;;;;;;5074160;28;20412;-75
2021/06/04 01:06:25;;;;;;;0.97;0.90;;;;;;;;;;5074138;28;20809;-75
2021/06/04 01:09:00;;;;;;;1.27;1.17;;;;;;;;;;5056176;28;20497;-75
2021/06/04 01:11:48;;;;;;;1.63;1.43;;;;;;;;;;5073976;28;20442;-75
2021/06/04 01:14:29;;;;;;;1.00;0.90;;;;;;;;;;5056150;28;20421;-74
2021/06/04 01:17:05;;;;;;;1.10;1.10;;;;;;;;;;5053846;28;20420;-75
2021/06/04 01:19:46;;;;;;;0.90;0.90;;;;;;;;;;5055112;28;20417;-75
2021/06/04 01:22:35;;;;;;;0.80;0.80;;;;;;;;;;5073620;28;20497;-75
2021/06/04 01:25:11;;;;;;;1.40;1.30;;;;;;;;;;5072656;28;20443;-75
2021/06/04 01:27:48;;;;;;;0.93;0.93;;;;;;;;;;5055847;28;20498;-76
2021/06/04 01:30:23;;;;;;;1.07;1.07;;;;;;;;;;5074099;28;20408;-74
2021/06/04 01:32:50;;;;;;;1.20;1.10;;;;;;;;;;5074178;28;20445;-74
2021/06/04 01:35:21;;;;;;;1.40;1.30;;;;;;;;;;5074267;28;20404;-75
2021/06/04 01:37:48;;;;;;;1.80;1.70;;;;;;;;;;5073585;28;20970;-74
2021/06/04 01:40:16;;;;;;;1.00;0.90;;;;;;;;;;5073852;28;20414;-75
2021/06/04 01:42:44;;;;;;;1.67;1.57;;;;;;;;;;5053682;28;20472;-75
2021/06/04 01:45:13;;;;;;;1.30;1.20;;;;;;;;;;5053519;28;20916;-75
2021/06/04 01:47:41;;;;;;;1.20;1.10;;;;;;;;;;5050959;28;20474;-74
2021/06/04 01:50:28;;;;;;;0.90;0.80;;;;;;;;;;5059859;28;20423;-75
2021/06/04 01:52:55;;;;;;;1.13;0.93;;;;;;;;;;5066271;28;20414;-75
2021/06/04 01:55:32;;;;;;;1.27;1.17;;;;;;;;;;5073489;28;20439;-75
2021/06/04 01:57:59;;;;;;;0.90;0.90;;;;;;;;;;5073260;28;20436;-75
2021/06/04 02:00:25;;;;;;;1.33;1.23;;;;;;;;;;5073708;28;20411;-74
2021/06/04 02:02:52;;;;;;;1.60;1.50;;;;;;;;;;5073460;28;20411;-75
2021/06/04 02:05:20;;;;;;;2.20;1.13;;;;;;;;;;5073091;28;20476;-75
2021/06/04 02:07:46;;;;;;;1.20;1.10;;;;;;;;;;5072729;28;20473;-74
2021/06/04 02:10:16;;;;;;;1.00;0.97;;;;;;;;;;5072861;28;20491;-75
2021/06/04 02:12:42;;;;;;;1.60;1.50;;;;;;;;;;5073063;28;20459;-75
2021/06/04 02:15:11;;;;;;;1.40;1.30;;;;;;;;;;5054957;28;20440;-75
2021/06/04 02:17:45;;;;;;;1.20;1.10;;;;;;;;;;5052531;28;20928;-75
2021/06/04 02:20:11;;;;;;;1.37;1.27;;;;;;;;;;5059050;28;20495;-75
2021/06/04 02:22:51;;;;;;;2.40;2.20;;;;;;;;;;5072785;28;20407;-75
2021/06/04 02:25:21;;;;;;;1.30;1.20;;;;;;;;;;5072675;28;20433;-74
2021/06/04 02:27:49;;;;;;;1.07;0.97;;;;;;;;;;5072052;28;20486;-74
2021/06/04 02:30:15;;;;;;;1.00;0.90;;;;;;;;;;5072794;28;20774;-75
2021/06/04 02:32:45;;;;;;;1.50;1.33;;;;;;;;;;5072751;28;20396;-76
2021/06/04 02:35:15;;;;;;;1.63;1.27;;;;;;;;;;5072553;28;20407;-75
2021/06/04 02:37:45;;;;;;;3.03;1.73;;;;;;;;;;5072618;28;20992;-75
2021/06/04 02:40:13;;;;;;;1.50;1.40;;;;;;;;;;5072842;28;20472;-75
2021/06/04 02:42:45;;;;;;;3.40;2.00;;;;;;;;;;5072288;28;20493;-75
2021/06/04 02:45:26;;;;;;;1.37;1.27;;;;;;;;;;5058765;28;20805;-74
2021/06/04 02:47:54;;;;;;;0.73;0.70;;;;;;;;;;5052082;28;20459;-75
2021/06/04 02:50:43;;;;;;;1.40;1.30;;;;;;;;;;5064089;28;20418;-75
2021/06/04 02:53:18;;;;;;;1.33;1.20;;;;;;;;;;5063849;28;20427;-75
2021/06/04 02:55:52;;;;;;;1.30;1.20;;;;;;;;;;5071973;28;20901;-75
2021/06/04 02:58:18;;;;;;;1.10;1.00;;;;;;;;;;5071860;28;20430;-74
2021/06/04 03:00:44;;;;;;;1.33;1.23;;;;;;;;;;5072280;28;20424;-75
2021/06/04 03:03:10;;;;;;;1.90;1.03;;;;;;;;;;5072427;28;20423;-75
2021/06/04 03:05:40;;;;;;;1.10;1.00;;;;;;;;;;5072534;28;20407;-75
2021/06/04 03:08:07;;;;;;;0.90;0.77;;;;;;;;;;5071833;28;20876;-74
2021/06/04 03:10:41;;;;;;;2.20;1.60;;;;;;;;;;5054272;28;20390;-75
2021/06/04 03:13:08;;;;;;;1.43;1.33;;;;;;;;;;5071284;28;20429;-74
2021/06/04 03:15:47;;;;;;;1.03;0.97;;;;;;;;;;5072077;28;20411;-75
2021/06/04 03:18:14;;;;;;;1.47;1.37;;;;;;;;;;5072052;28;20462;-75
2021/06/04 03:20:43;;;;;;;1.60;1.50;;;;;;;;;;5071954;28;20422;-74
2021/06/04 03:23:10;;;;;;;1.70;1.60;;;;;;;;;;5071777;28;20419;-75
2021/06/04 03:25:40;;;;;;;1.23;1.13;;;;;;;;;;5072135;28;20443;-75
2021/06/04 03:28:08;;;;;;;1.20;1.10;;;;;;;;;;5071393;28;20965;-74
2021/06/04 03:30:36;;;;;;;1.40;1.20;;;;;;;;;;5071897;28;20894;-75
2021/06/04 03:33:02;;;;;;;1.60;1.50;;;;;;;;;;5072037;28;20448;-74
2021/06/04 03:35:28;;;;;;;1.60;1.50;;;;;;;;;;5071910;28;20889;-74
2021/06/04 03:37:54;;;;;;;1.07;1.00;;;;;;;;;;5071562;28;20427;-74
2021/06/04 03:40:22;;;;;;;2.97;1.67;;;;;;;;;;5071969;28;20452;-74
2021/06/04 03:42:49;;;;;;;1.20;1.10;;;;;;;;;;5071610;28;20454;-73
2021/06/04 03:45:17;;;;;;;1.20;1.10;;;;;;;;;;5054118;28;20489;-73
2021/06/04 03:47:43;;;;;;;1.90;1.57;;;;;;;;;;5051999;28;20503;-73
2021/06/04 03:50:10;;;;;;;1.20;1.10;;;;;;;;;;5062283;28;20429;-74
2021/06/04 03:52:36;;;;;;;1.13;1.03;;;;;;;;;;5072200;28;20410;-74
2021/06/04 03:55:03;;;;;;;1.00;1.00;;;;;;;;;;5072195;28;20494;-73
2021/06/04 03:57:31;;;;;;;1.47;1.37;;;;;;;;;;5062650;28;20533;-73
2021/06/04 03:59:58;;;;;;;1.53;1.43;;;;;;;;;;5072018;28;20549;-74
2021/06/04 04:02:25;;;;;;;0.83;0.80;;;;;;;;;;5071828;28;20770;-74
2021/06/04 04:04:56;;;;;;;1.47;1.37;;;;;;;;;;5071708;28;20411;-74
2021/06/04 04:07:22;;;;;;;1.30;1.20;;;;;;;;;;5071123;28;20430;-74
2021/06/04 04:09:48;;;;;;;0.80;0.80;;;;;;;;;;5071960;28;20403;-74
2021/06/04 04:12:14;;;;;;;1.70;1.60;;;;;;;;;;5074818;28;20883;-75
2021/06/04 04:14:40;;;;;;;1.10;1.10;;;;;;;;;;5067655;28;20438;-74
2021/06/04 04:17:06;;;;;;;1.67;1.57;;;;;;;;;;5054854;28;20415;-75
2021/06/04 04:19:33;;;;;;;1.83;1.73;;;;;;;;;;5054984;28;20444;-75
2021/06/04 04:21:59;;;;;;;1.20;1.10;;;;;;;;;;5055052;28;20762;-74
2021/06/04 04:24:28;;;;;;;1.50;1.40;;;;;;;;;;5055163;28;20506;-74
2021/06/04 04:26:55;;;;;;;1.70;1.60;;;;;;;;;;5067057;28;20470;-74
2021/06/04 04:29:21;;;;;;;5.10;1.20;;;;;;;;;;5075109;28;20825;-76
2021/06/04 04:31:49;;;;;;;1.47;1.33;;;;;;;;;;5074798;28;20494;-75
2021/06/04 04:34:15;;;;;;;1.87;1.63;;;;;;;;;;5074729;28;20443;-76
2021/06/04 04:36:43;;;;;;;1.73;1.20;;;;;;;;;;5074324;28;20412;-75
2021/06/04 04:39:11;;;;;;;1.83;1.73;;;;;;;;;;5074608;28;20418;-75
2021/06/04 04:41:37;;;;;;;1.90;1.20;;;;;;;;;;5074420;28;20894;-75
2021/06/04 04:44:03;;;;;;;1.03;1.03;;;;;;;;;;5074545;28;20407;-76
2021/06/04 04:46:29;;;;;;;1.33;1.20;;;;;;;;;;5056768;28;20472;-76
2021/06/04 04:48:56;;;;;;;1.00;0.90;;;;;;;;;;5054366;28;20455;-75
2021/06/04 04:51:22;;;;;;;1.53;1.43;;;;;;;;;;5054351;28;20499;-75
2021/06/04 04:53:50;;;;;;;1.60;1.50;;;;;;;;;;5054315;28;20839;-75
2021/06/04 04:56:16;;;;;;;1.40;1.20;;;;;;;;;;5053232;28;20732;-76
2021/06/04 04:58:42;;;;;;;1.50;1.40;;;;;;;;;;5073733;28;20498;-76
2021/06/04 05:01:09;;;;;;;1.37;1.27;;;;;;;;;;5074013;28;20498;-75
2021/06/04 05:03:36;;;;;;;1.40;1.30;;;;;;;;;;5074114;28;20931;-76
2021/06/04 05:06:02;;;;;;;1.67;1.57;;;;;;;;;;5073799;28;21106;-75
2021/06/04 05:08:28;;;;;;;2.27;2.07;;;;;;;;;;5073906;28;20886;-76
2021/06/04 05:10:56;;;;;;;1.80;1.70;;;;;;;;;;5074053;28;20396;-76
2021/06/04 05:13:22;;;;;;;2.40;2.20;;;;;;;;;;5073669;28;20405;-76
2021/06/04 05:15:48;;;;;;;1.40;1.30;;;;;;;;;;5072467;28;20513;-76
2021/06/04 05:18:14;;;;;;;1.50;1.40;;;;;;;;;;5073825;28;20435;-76
2021/06/04 05:20:41;;;;;;;1.87;1.77;;;;;;;;;;5074003;28;20403;-76
2021/06/04 05:23:08;;;;;;;1.10;1.00;;;;;;;;;;5074270;28;20419;-76
2021/06/04 05:25:36;;;;;;;1.27;1.17;;;;;;;;;;5074111;28;20431;-76
2021/06/04 05:28:02;;;;;;;1.50;1.40;;;;;;;;;;5073766;28;20462;-76
2021/06/04 05:30:30;;;;;;;1.87;1.77;;;;;;;;;;5074103;28;20415;-76
2021/06/04 05:32:56;;;;;;;1.70;1.60;;;;;;;;;;5074218;28;20477;-76
2021/06/04 05:35:23;;;;;;;1.43;1.33;;;;;;;;;;5074065;28;20415;-76
2021/06/04 05:37:49;;;;;;;1.47;1.37;;;;;;;;;;5073845;28;20473;-75
2021/06/04 05:40:17;;;;;;;1.60;1.50;;;;;;;;;;5066108;28;20435;-75
2021/06/04 05:42:43;;;;;;;1.43;1.33;;;;;;;;;;5072922;28;20419;-76
2021/06/04 05:45:11;;;;;;;3.17;1.87;;;;;;;;;;5064395;28;20439;-75
2021/06/04 05:47:37;;;;;;;2.83;2.30;;;;;;;;;;5054015;28;20544;-75
2021/06/04 05:50:04;;;;;;;1.40;1.30;;;;;;;;;;5054476;28;20411;-75
2021/06/04 05:52:30;;;;;;;1.47;1.23;;;;;;;;;;5053782;28;20420;-76
2021/06/04 05:54:56;;;;;;;2.67;1.93;;;;;;;;;;5053491;28;20420;-76
2021/06/04 05:57:22;;;;;;;1.40;1.30;;;;;;;;;;5053043;28;20428;-76
2021/06/04 05:59:49;;;;;;;1.60;1.27;;;;;;;;;;5053180;28;20409;-76
2021/06/04 06:02:15;;;;;;;1.63;1.53;;;;;;;;;;5053240;28;20498;-76
2021/06/04 06:04:42;;;;;;;1.83;1.73;;;;;;;;;;5053061;28;20492;-75
2021/06/04 06:07:08;;;;;;;2.13;2.03;;;;;;;;;;5052667;28;20459;-76
2021/06/04 06:09:34;;;;;;;1.63;1.43;;;;;;;;;;5052827;28;20547;-76
2021/06/04 06:12:00;;;;;;;1.90;1.80;;;;;;;;;;5065793;28;20756;-75
2021/06/04 06:14:26;;;;;;;2.40;2.30;;;;;;;;;;5071809;28;20407;-76
2021/06/04 06:16:52;;;;;;;1.53;1.43;;;;;;;;;;5053151;28;20441;-75
2021/06/04 06:19:19;;;;;;;2.13;1.20;;;;;;;;;;5052666;28;20432;-76
2021/06/04 06:21:46;;;;;;;1.80;1.70;;;;;;;;;;5052655;28;20416;-76
2021/06/04 06:24:13;;;;;;;1.33;1.23;;;;;;;;;;5052681;28;20411;-76
2021/06/04 06:26:39;;;;;;;1.40;1.23;;;;;;;;;;5052088;28;20451;-76
2021/06/04 06:29:07;;;;;;;2.00;1.80;;;;;;;;;;5052543;28;20465;-76
2021/06/04 06:31:34;;;;;;;1.43;1.00;;;;;;;;;;5052606;28;20405;-76
2021/06/04 06:34:01;;;;;;;1.50;1.23;;;;;;;;;;5051931;28;20441;-76
2021/06/04 06:36:30;;;;;;;1.10;1.00;;;;;;;;;;5034156;28;20475;-76
2021/06/04 06:38:58;;;;;;;1.50;1.40;;;;;;;;;;5052305;28;20460;-76
2021/06/04 06:41:25;;;;;;;2.13;1.90;;;;;;;;;;5068760;28;20495;-75
2021/06/04 06:43:52;;;;;;;2.07;1.43;;;;;;;;;;5067481;28;21099;-75
2021/06/04 06:46:18;;;;;;;2.50;2.40;;;;;;;;;;5051895;28;20415;-76
2021/06/04 06:48:44;;;;;;;1.40;1.30;;;;;;;;;;5052266;28;20467;-75
2021/06/04 06:51:11;;;;;;;1.20;1.10;;;;;;;;;;5052275;28;20452;-76
2021/06/04 06:53:38;;;;;;;2.20;2.10;;;;;;;;;;5052216;28;20413;-76
2021/06/04 06:56:05;;;;;;;1.20;1.10;;;;;;;;;;5052530;28;20401;-75
2021/06/04 06:58:31;;;;;;;1.80;1.70;;;;;;;;;;5052895;28;20931;-75
2021/06/04 07:00:57;;;;;;;2.37;2.00;;;;;;;;;;5053066;28;20785;-75
2021/06/04 07:03:29;;;;;;;1.53;1.43;;;;;;;;;;5051007;28;20460;-75
2021/06/04 07:05:56;;;;;;;1.73;1.60;;;;;;;;;;5051913;28;20411;-75
2021/06/04 07:08:22;;;;;;;2.03;1.93;;;;;;;;;;5052426;28;20460;-75
2021/06/04 07:10:49;;;;;;;1.93;1.73;;;;;;;;;;5055516;28;20468;-75
2021/06/04 07:13:17;;;;;;;3.10;1.83;;;;;;;;;;5071699;28;20442;-75
2021/06/04 07:15:43;;;;;;;2.50;2.40;;;;;;;;;;5054986;28;20482;-76
2021/06/04 07:18:10;;;;;;;1.83;1.73;;;;;;;;;;5071714;28;20493;-75
2021/06/04 07:20:37;;;;;;;2.27;2.10;;;;;;;;;;5072063;28;20408;-76
2021/06/04 07:23:05;;;;;;;2.03;1.83;;;;;;;;;;5072085;28;20457;-76
2021/06/04 07:25:32;;;;;;;1.10;1.03;;;;;;;;;;5060057;28;20846;-78
2021/06/04 07:27:58;;;;;;;3.53;2.40;;;;;;;;;;5071686;28;20464;-76
2021/06/04 07:30:47;;;;;;;2.20;2.00;;;;;;;;;;5071697;28;20818;-76
2021/06/04 07:33:19;;;;;;;2.53;2.33;;;;;;;;;;5069036;28;20422;-76
2021/06/04 07:35:45;;;;;;;1.97;1.70;;;;;;;;;;5071520;28;20407;-75
2021/06/04 07:38:11;;;;;;;2.77;2.10;;;;;;;;;;5071683;28;20474;-76
2021/06/04 07:40:38;;;;;;;2.40;2.20;;;;;;;;;;5070736;28;20526;-76
2021/06/04 07:43:06;;;;;;;1.90;1.80;;;;;;;;;;5072017;28;20789;-76
2021/06/04 07:45:36;;;;;;;1.50;1.40;;;;;;;;;;5065169;28;20433;-75
2021/06/04 07:48:03;;;;;;;1.60;1.50;;;;;;;;;;5075161;28;20500;-75
2021/06/04 07:50:29;;;;;;;1.40;1.30;;;;;;;;;;5075683;28;20409;-76
2021/06/04 07:52:55;;;;;;;1.70;1.60;;;;;;;;;;5075690;28;20483;-75
2021/06/04 07:55:22;;;;;;;2.13;2.03;;;;;;;;;;5075638;28;20401;-76
2021/06/04 07:57:48;;;;;;;2.30;2.07;;;;;;;;;;5075072;28;20443;-76
2021/06/04 08:00:16;;;;;;;2.70;2.50;;;;;;;;;;5075177;28;20412;-75
2021/06/04 08:02:42;;;;;;;2.23;1.93;;;;;;;;;;5075534;28;20438;-76
2021/06/04 08:05:09;;;;;;;2.20;2.00;;;;;;;;;;5075601;28;20421;-76
2021/06/04 08:07:35;;;;;;;1.83;1.50;;;;;;;;;;5074978;28;20532;-76
2021/06/04 08:10:01;;;;;;;2.07;1.50;;;;;;;;;;5075268;28;20438;-75
2021/06/04 08:12:30;;;;;;;1.47;1.37;;;;;;;;;;5075282;28;20409;-76
2021/06/04 08:15:05;;;;;;;2.70;2.50;;;;;;;;;;5069433;28;20438;-77
2021/06/04 08:17:31;;;;;;;2.20;2.00;;;;;;;;;;5072276;28;20456;-77
2021/06/04 08:19:57;;;;;;;2.03;1.93;;;;;;;;;;5075087;28;20770;-76
2021/06/04 08:22:23;;;;;;;2.20;2.00;;;;;;;;;;5075206;28;20413;-77
2021/06/04 08:24:50;;;;;;;2.33;1.70;;;;;;;;;;5074880;28;20432;-77
2021/06/04 08:27:18;;;;;;;1.47;1.37;;;;;;;;;;5074677;28;21075;-76
2021/06/04 08:29:47;;;;;;;2.03;1.93;;;;;;;;;;5074921;28;20465;-77
2021/06/04 08:32:13;;;;;;;1.60;1.50;;;;;;;;;;5074846;28;20501;-77
2021/06/04 08:34:40;;;;;;;2.80;2.40;;;;;;;;;;5074853;28;20503;-77
2021/06/04 08:37:06;;;;;;;2.23;2.00;;;;;;;;;;5074604;28;20430;-77
2021/06/04 08:39:33;;;;;;;2.33;1.87;;;;;;;;;;5056874;28;20418;-77
2021/06/04 08:41:59;;;;;;;2.20;2.00;;;;;;;;;;5074928;28;20411;-77
2021/06/04 08:44:34;;;;;;;2.57;2.37;;;;;;;;;;5069574;28;20427;-77
2021/06/04 08:47:02;;;;;;;1.80;1.70;;;;;;;;;;5067239;28;20434;-77
2021/06/04 08:49:46;;;;;;;1.87;1.77;;;;;;;;;;5074403;28;20483;-77
2021/06/04 08:52:28;;;;;;;1.63;1.53;;;;;;;;;;5074737;28;20918;-77
2021/06/04 08:55:13;;;;;;;2.13;2.03;;;;;;;;;;5074656;28;20507;-77
2021/06/04 08:57:44;;;;;;;2.97;2.20;;;;;;;;;;5073470;28;20427;-77
2021/06/04 09:00:13;;;;;;;2.50;2.27;;;;;;;;;;5074197;28;20890;-77
2021/06/04 09:02:41;;;;;;;3.13;2.83;;;;;;;;;;5074404;28;20406;-77
2021/06/04 09:05:12;;;;;;;2.20;2.10;;;;;;;;;;5074454;28;20502;-77
2021/06/04 09:07:41;;;;;;;2.43;1.73;;;;;;;;;;5073946;28;20426;-77
2021/06/04 09:10:10;;;;;;;2.13;2.00;;;;;;;;;;5074234;28;20403;-77
2021/06/04 09:12:49;;;;;;;1.80;1.63;;;;;;;;;;5056559;28;20407;-77
2021/06/04 09:15:21;;;;;;;1.90;1.80;;;;;;;;;;5072603;28;20430;-77
2021/06/04 09:17:50;;;;;;;2.10;2.00;;;;;;;;;;5073766;28;20443;-77
2021/06/04 09:20:22;;;;;;;2.93;2.10;;;;;;;;;;5074241;28;20422;-77
2021/06/04 09:22:52;;;;;;;2.17;2.00;;;;;;;;;;5074132;28;20419;-77
2021/06/04 09:25:21;;;;;;;3.17;2.90;;;;;;;;;;5060157;28;20443;-77
2021/06/04 09:27:50;;;;;;;2.60;2.40;;;;;;;;;;5073354;28;20455;-77
2021/06/04 09:30:22;;;;;;;2.70;2.50;;;;;;;;;;5073669;28;20466;-77
2021/06/04 09:33:06;;;;;;;3.03;2.83;;;;;;;;;;5072637;28;20415;-77
2021/06/04 09:35:33;;;;;;;3.83;3.53;;;;;;;;;;5073555;28;20486;-77
2021/06/04 09:38:19;;;;;;;2.70;2.50;;;;;;;;;;5073063;28;20431;-77
2021/06/04 09:40:46;;;;;;;2.63;2.43;;;;;;;;;;5073768;28;20437;-77
2021/06/04 09:43:12;;;;;;;2.97;2.67;;;;;;;;;;5073609;28;20409;-77
2021/06/04 09:45:43;;;;;;;2.00;1.80;;;;;;;;;;5070882;28;20446;-77
2021/06/04 09:48:14;;;;;;;1.67;1.37;;;;;;;;;;5073049;28;20819;-77
2021/06/04 09:50:40;;;;;;;3.40;3.13;;;;;;;;;;5073277;28;20417;-77
2021/06/04 09:53:08;;;;;;;2.57;2.37;;;;;;;;;;5073353;28;20457;-77
2021/06/04 09:55:37;;;;;;;1.83;1.73;;;;;;;;;;5073392;28;20425;-77
2021/06/04 09:58:12;;;;;;;4.67;2.70;;;;;;;;;;5066741;28;20427;-77
2021/06/04 10:00:49;;;;;;;2.37;2.17;;;;;;;;;;5072996;28;20471;-77
2021/06/04 10:03:18;;;;;;;2.27;2.17;;;;;;;;;;5073117;28;20410;-77
2021/06/04 10:05:45;;;;;;;2.43;2.23;;;;;;;;;;5072862;28;20411;-77
2021/06/04 10:08:22;;;;;;;2.10;1.90;;;;;;;;;;5071945;28;20450;-76
2021/06/04 10:11:02;;;;;;;2.90;1.90;;;;;;;;;;5073342;28;20407;-76
2021/06/04 10:13:34;;;;;;;2.70;2.40;;;;;;;;;;5066220;28;20429;-76
2021/06/04 10:16:03;;;;;;;2.60;2.40;;;;;;;;;;5050997;28;20422;-77
2021/06/04 10:18:39;;;;;;;1.90;1.80;;;;;;;;;;5053338;28;20500;-76
2021/06/04 10:21:14;;;;;;;2.77;2.57;;;;;;;;;;5053471;28;20420;-76
2021/06/04 10:23:45;;;;;;;1.70;1.60;;;;;;;;;;5053277;28;20423;-77
2021/06/04 10:26:20;;;;;;;1.50;1.40;;;;;;;;;;5058775;28;20577;-77
2021/06/04 10:28:48;;;;;;;1.40;1.30;;;;;;;;;;5074142;28;20520;-77
2021/06/04 10:31:16;;;;;;;1.87;1.77;;;;;;;;;;5074206;28;20413;-77
2021/06/04 10:33:55;;;;;;;2.23;2.07;;;;;;;;;;5056170;28;20415;-77
2021/06/04 10:36:22;;;;;;;2.07;1.87;;;;;;;;;;5073823;28;20407;-77
2021/06/04 10:38:51;;;;;;;2.80;2.60;;;;;;;;;;5074502;28;20419;-77
2021/06/04 10:41:20;;;;;;;3.10;2.80;;;;;;;;;;5074452;28;20493;-77
2021/06/04 10:44:05;;;;;;;8.03;2.80;;;;;;;;;;5068964;28;20448;-77
2021/06/04 10:46:37;;;;;;;3.10;2.60;;;;;;;;;;5054135;28;20831;-77
2021/06/04 10:49:07;;;;;;;2.43;2.23;;;;;;;;;;5056295;28;20448;-77
2021/06/04 10:51:52;;;;;;;2.50;2.30;;;;;;;;;;5055649;28;20410;-77
2021/06/04 10:54:36;;;;;;;2.20;1.93;;;;;;;;;;5052428;28;20429;-77
2021/06/04 10:57:18;;;;;;;1.90;1.80;;;;;;;;;;5063671;28;20462;-77
2021/06/04 10:59:56;;;;;;;2.43;2.23;;;;;;;;;;5063018;28;20458;-76
2021/06/04 11:02:32;;;;;;;2.93;2.73;;;;;;;;;;5034309;28;20494;-76
2021/06/04 11:05:17;;;;;;;2.07;1.87;;;;;;;;;;5052403;28;20410;-77
2021/06/04 11:07:49;;;;;;;2.43;2.23;;;;;;;;;;5051592;28;20434;-77
2021/06/04 11:10:22;;;;;;;2.13;2.03;;;;;;;;;;5052283;28;20415;-77
2021/06/04 11:12:54;;;;;;;2.73;2.53;;;;;;;;;;5052308;28;20820;-77
2021/06/04 11:15:24;;;;;;;2.40;2.20;;;;;;;;;;5052516;28;20815;-77
2021/06/04 11:17:56;;;;;;;2.07;1.97;;;;;;;;;;5051856;28;20977;-77
2021/06/04 11:20:36;;;;;;;2.27;2.07;;;;;;;;;;5052200;28;20428;-75
2021/06/04 11:23:15;;;;;;;2.17;2.00;;;;;;;;;;5052496;28;20491;-77
2021/06/04 11:25:59;;;;;;;3.30;2.47;;;;;;;;;;5052124;28;20431;-77
2021/06/04 11:28:25;;;;;;;2.73;2.53;;;;;;;;;;5054445;28;20453;-77
2021/06/04 11:30:54;;;;;;;2.80;2.60;;;;;;;;;;5073455;28;20755;-77
2021/06/04 11:33:46;;;;;;;2.70;2.50;;;;;;;;;;5072887;28;20502;-77
2021/06/04 11:36:20;;;;;;;2.30;2.10;;;;;;;;;;5070498;28;20433;-77
2021/06/04 11:38:48;;;;;;;2.60;2.40;;;;;;;;;;5055473;28;20436;-77
2021/06/04 11:41:20;;;;;;;3.00;2.70;;;;;;;;;;5052203;28;20417;-76
2021/06/04 11:43:49;;;;;;;2.87;2.67;;;;;;;;;;5035547;28;20425;-76
2021/06/04 11:46:18;;;;;;;2.03;1.87;;;;;;;;;;5034555;28;20953;-77
2021/06/04 11:48:56;;;;;;;3.00;2.70;;;;;;;;;;5052865;28;20548;-77
2021/06/04 11:51:30;;;;;;;2.53;2.43;;;;;;;;;;5052720;28;20947;-77
2021/06/04 11:54:11;;;;;;;1.90;1.80;;;;;;;;;;5052711;28;20417;-77
2021/06/04 11:56:57;;;;;;;2.50;2.37;;;;;;;;;;5056592;28;20448;-77
2021/06/04 11:59:42;;;;;;;2.83;2.60;;;;;;;;;;5072148;28;20776;-77
2021/06/04 12:02:08;;;;;;;2.60;2.40;;;;;;;;;;5072489;28;20969;-77
2021/06/04 12:04:34;;;;;;;2.77;2.27;;;;;;;;;;5072363;28;20445;-77
2021/06/04 12:07:22;;;;;;;2.70;2.50;;;;;;;;;;5071831;28;20484;-76
2021/06/04 12:09:49;;;;;;;2.70;2.60;;;;;;;;;;5071618;28;20478;-77
2021/06/04 12:12:16;;;;;;;2.63;2.20;;;;;;;;;;5072231;28;20413;-76
2021/06/04 12:14:42;;;;;;;3.17;2.97;;;;;;;;;;5072169;28;20495;-77
2021/06/04 12:17:21;;;;;;;3.33;3.03;;;;;;;;;;5069834;28;20445;-76
2021/06/04 12:19:47;;;;;;;2.70;2.50;;;;;;;;;;5046844;28;20843;-77
2021/06/04 12:22:35;;;;;;;2.90;2.70;;;;;;;;;;5072036;28;20403;-77
2021/06/04 12:25:03;;;;;;;3.20;2.70;;;;;;;;;;5072065;28;20437;-77
2021/06/04 12:27:28;;;;;;;3.03;2.80;;;;;;;;;;5071715;28;20481;-76
2021/06/04 12:29:55;;;;;;;2.73;2.53;;;;;;;;;;5071937;28;20456;-77
2021/06/04 12:32:24;;;;;;;2.57;2.47;;;;;;;;;;5073421;28;20417;-77
2021/06/04 12:34:50;;;;;;;2.60;2.40;;;;;;;;;;5075041;28;20924;-77
2021/06/04 12:39:54;;;;;;;3.30;3.10;;;;;;;;;;5075154;28;20410;-76
2021/06/04 12:42:35;;;;;;;3.30;3.00;;;;;;;;;;5074973;28;20415;-76
2021/06/04 12:45:04;;;;;;;4.20;3.40;;;;;;;;;;5066048;28;20434;-76
2021/06/04 12:47:39;;;;;;;2.80;2.60;;;;;;;;;;5064316;28;20438;-76
2021/06/04 12:50:07;;;;;;;3.03;2.83;;;;;;;;;;5074938;28;20428;-76
2021/06/04 12:52:33;;;;;;;3.10;2.30;;;;;;;;;;5057011;28;20452;-77
2021/06/04 12:55:13;;;;;;;2.90;2.70;;;;;;;;;;5074882;28;20888;-76
2021/06/04 12:57:39;;;;;;;6.30;3.70;;;;;;;;;;5069894;28;20436;-76
2021/06/04 13:00:18;;;;;;;3.33;3.10;;;;;;;;;;5074629;28;20407;-76
2021/06/04 13:02:45;;;;;;;2.53;2.33;;;;;;;;;;5074604;28;20462;-76
2021/06/04 13:05:11;;;;;;;4.77;3.00;;;;;;;;;;5074822;28;20874;-76
2021/06/04 13:07:38;;;;;;;2.70;2.50;;;;;;;;;;5074030;28;20787;-77
2021/06/04 13:10:23;;;;;;;2.93;2.73;;;;;;;;;;5074593;28;20410;-77
2021/06/04 13:12:53;;;;;;;2.70;2.50;;;;;;;;;;5056071;28;20449;-77
2021/06/04 13:15:21;;;;;;;2.73;2.53;;;;;;;;;;5066464;28;20812;-76
2021/06/04 13:18:07;;;;;;;2.73;2.53;;;;;;;;;;5053933;28;20424;-76
2021/06/04 13:20:35;;;;;;;3.60;3.30;;;;;;;;;;5054635;28;20424;-76
2021/06/04 13:23:16;;;;;;;2.63;2.40;;;;;;;;;;5054430;28;20427;-76
2021/06/04 13:25:44;;;;;;;2.63;2.43;;;;;;;;;;5054087;28;20518;-77
2021/06/04 13:28:26;;;;;;;2.93;2.73;;;;;;;;;;5063335;28;20466;-76
2021/06/04 13:30:56;;;;;;;3.00;2.70;;;;;;;;;;5067228;28;20834;-77
2021/06/04 13:33:24;;;;;;;3.03;2.83;;;;;;;;;;5056900;28;20408;-77
2021/06/04 13:35:50;;;;;;;3.10;2.80;;;;;;;;;;5074379;28;20414;-77
2021/06/04 13:38:20;;;;;;;3.20;2.90;;;;;;;;;;5056649;28;20450;-77
2021/06/04 13:40:47;;;;;;;2.37;2.20;;;;;;;;;;5074636;28;20421;-76
2021/06/04 13:43:22;;;;;;;3.77;3.50;;;;;;;;;;5072951;28;20495;-76
2021/06/04 13:45:48;;;;;;;3.20;3.00;;;;;;;;;;5056261;28;20410;-76
2021/06/04 13:48:18;;;;;;;2.50;2.30;;;;;;;;;;5073749;28;20451;-76
2021/06/04 13:50:53;;;;;;;2.70;2.50;;;;;;;;;;5074258;28;20910;-76
2021/06/04 13:53:21;;;;;;;6.10;2.53;;;;;;;;;;5074421;28;20916;-76
2021/06/04 13:55:49;;;;;;;2.70;2.50;;;;;;;;;;5072519;28;20407;-76
2021/06/04 13:58:20;;;;;;;3.83;2.80;;;;;;;;;;5067831;28;20888;-76
2021/06/04 14:01:04;;;;;;;3.10;2.90;;;;;;;;;;5073878;28;20447;-76
2021/06/04 14:03:31;;;;;;;2.47;2.37;;;;;;;;;;5056147;28;20437;-76
2021/06/04 14:05:59;;;;;;;2.53;2.43;;;;;;;;;;5073892;28;20411;-76
2021/06/04 14:08:26;;;;;;;2.20;2.07;;;;;;;;;;5055771;28;20996;-76
2021/06/04 14:10:52;;;;;;;3.00;2.80;;;;;;;;;;5073905;28;20408;-76
2021/06/04 14:13:23;;;;;;;3.17;2.97;;;;;;;;;;5073550;28;20413;-76
2021/06/04 14:15:54;;;;;;;2.70;2.60;;;;;;;;;;5054270;28;20428;-76
2021/06/04 14:18:34;;;;;;;2.73;2.40;;;;;;;;;;5053575;28;20459;-76
2021/06/04 14:21:19;;;;;;;2.53;2.33;;;;;;;;;;5053928;28;20415;-76
2021/06/04 14:23:55;;;;;;;3.00;2.67;;;;;;;;;;5053597;28;20400;-76
2021/06/04 14:26:21;;;;;;;2.80;2.63;;;;;;;;;;5057665;28;20830;-76
2021/06/04 14:28:58;;;;;;;3.03;2.83;;;;;;;;;;5055082;28;20458;-76
2021/06/04 14:31:24;;;;;;;2.67;2.47;;;;;;;;;;5073470;28;20459;-76
2021/06/04 14:33:52;;;;;;;2.60;2.40;;;;;;;;;;5073547;28;20414;-76
2021/06/04 14:36:26;;;;;;;2.63;2.43;;;;;;;;;;5072876;28;20418;-77
2021/06/04 14:38:54;;;;;;;3.30;3.10;;;;;;;;;;5055566;28;20415;-76
2021/06/04 14:41:20;;;;;;;4.07;3.23;;;;;;;;;;5073019;28;20411;-76
2021/06/04 14:43:48;;;;;;;3.00;2.80;;;;;;;;;;5068088;28;20807;-76
2021/06/04 14:46:19;;;;;;;2.43;2.23;;;;;;;;;;5051968;28;20783;-76
2021/06/04 14:48:45;;;;;;;3.07;2.77;;;;;;;;;;5052116;28;20597;-76
2021/06/04 14:51:11;;;;;;;2.53;2.33;;;;;;;;;;5052190;28;20408;-76
2021/06/04 14:53:37;;;;;;;2.60;2.50;;;;;;;;;;5051995;28;20439;-76
2021/06/04 14:56:07;;;;;;;3.40;3.20;;;;;;;;;;5051463;28;20411;-76
2021/06/04 14:58:33;;;;;;;2.80;2.70;;;;;;;;;;5070787;28;20450;-76
2021/06/04 15:00:59;;;;;;;2.87;2.67;;;;;;;;;;5072006;28;20412;-76
2021/06/04 15:03:25;;;;;;;3.13;2.77;;;;;;;;;;5071990;28;20414;-76